Main page
Satellite images 15-day forecastsClimateMarine weather Cyclones Lightning AirportsFAQ Newsletter About
Weather : Europe Africa North America South America Asia Australia-Oceania Others
Languages Contact

Doha, Qatar

latitude: 25-15N, longitude: 051-34E, elevation: 11 m


METAR: OTBD 212300Z 28004KT 200V340 CAVOK 29/24 Q1014 NOSIG
TAF: OTBD 212300Z 2200/2306 35012KT 7000 NSC BECMG 2205/2207 02015G25KT TEMPO 2205/2213 3000 BLDU BECMG 2214/2216 34014KT

Time: 02:58 (23:58 UTC)

Current weather observation

The report was made 58 minutes ago, at 23:00 UTC
Wind 4 kt from the West, varying between South/Southwest and North/Northwest
Temperature 29°C
Humidity 74%
Pressure 1014 hPa
Visibility 10 km or more
no clouds below 1500 m and no cumulonimbus

Change units

Forecast

The report was made 58 minutes ago, at 23:00 UTC
Forecast valid from 22 at 00 UTC to 23 at 06 UTC
Wind 12 kt from the North
Visibility: 7000 m
Becoming
from 22 at 05 UTC to 22 at 07 UTC
Wind 15 kt from the North/Northeast with gusts up to 25 kt
Temporary
from 22 at 05 UTC to 22 at 13 UTC
Visibility: 3000 m
blowing widespread dust
Becoming
from 22 at 14 UTC to 22 at 16 UTC
Wind 14 kt from the North/Northwest
The information on this site is subject to a disclaimer
Weather : Europe Africa North America South America Asia Australia-Oceania Others
Satellite images 15-day forecastsClimateMarine weather Cyclones Lightning AirportsFAQ Languages Contact Newsletter About